createdAt,value
2023-04-14T00:04:20.155Z,99347.88
2023-04-14T00:09:25.489Z,99362.34
2023-04-14T00:14:29.006Z,99368.94
2023-04-14T00:19:32.407Z,99375.66
2023-04-14T00:24:43.252Z,99373.06
2023-04-14T00:29:46.848Z,99362.13
2023-04-14T00:34:50.342Z,99391.69
2023-04-14T00:39:55.194Z,99389.91
2023-04-14T00:44:58.789Z,99392.47
2023-04-14T00:50:02.930Z,99408.03
2023-04-14T00:55:10.378Z,99406.09
2023-04-14T01:00:15.891Z,99415.28
2023-04-14T01:05:19.625Z,99405.50
2023-04-14T01:10:29.539Z,99417.19
2023-04-14T01:15:39.739Z,99411.00
2023-04-14T01:20:46.302Z,99414.28
2023-04-14T01:26:19.844Z,99408.75
2023-04-14T01:31:28.282Z,99420.78
2023-04-14T01:36:41.548Z,99426.78
2023-04-14T01:41:48.739Z,99434.53
2023-04-14T01:46:57.102Z,99430.94
2023-04-14T01:52:02.185Z,99451.03
2023-04-14T01:57:07.803Z,99450.94
2023-04-14T02:02:15.280Z,99457.66
2023-04-14T02:07:20.672Z,99478.22
2023-04-14T02:12:25.955Z,99467.63
2023-04-14T02:17:32.291Z,99459.59
2023-04-14T02:22:35.810Z,99479.50
2023-04-14T02:27:43.025Z,99458.66
2023-04-14T02:32:54.588Z,99468.06
2023-04-14T02:38:08.573Z,99469.72
2023-04-14T02:43:18.240Z,99479.84
2023-04-14T02:48:26.084Z,99495.88
2023-04-14T02:53:30.014Z,99526.09
2023-04-14T02:58:34.349Z,99509.66
2023-04-14T03:03:39.878Z,99511.69
2023-04-14T03:08:44.516Z,99521.06
2023-04-14T03:13:50.348Z,99524.88
2023-04-14T03:18:56.565Z,99530.16
2023-04-14T03:24:01.413Z,99540.06
2023-04-14T03:29:07.372Z,99541.56
2023-04-14T03:34:15.528Z,99521.81
2023-04-14T03:39:21.185Z,99550.09
2023-04-14T03:44:27.876Z,99549.03
2023-04-14T03:49:34.609Z,99552.94
2023-04-14T03:54:40.608Z,99553.50
2023-04-14T03:59:46.152Z,99558.50
2023-04-14T04:04:51.667Z,99556.03
2023-04-14T04:09:57.613Z,99552.19
2023-04-14T04:15:01.282Z,99545.28
2023-04-14T04:20:11.434Z,99577.50
2023-04-14T04:25:15.845Z,99559.41
2023-04-14T04:30:21.086Z,99574.41
2023-04-14T04:35:27.685Z,99567.78
2023-04-14T04:40:37.294Z,99566.56
2023-04-14T04:46:01.303Z,99567.00
2023-04-14T04:51:06.377Z,99575.63
2023-04-14T04:56:10.261Z,99562.56
2023-04-14T05:01:15.124Z,99575.19
2023-04-14T05:06:19.989Z,99580.06
2023-04-14T05:11:23.349Z,99578.19
2023-04-14T05:16:28.534Z,99581.50
2023-04-14T05:21:33.526Z,99578.19
2023-04-14T05:26:57.893Z,99567.44
2023-04-14T05:32:00.802Z,99573.50
2023-04-14T05:37:05.691Z,99585.06
2023-04-14T05:42:09.199Z,99578.91
2023-04-14T05:47:12.721Z,99575.88
2023-04-14T05:52:17.936Z,99578.38
2023-04-14T05:57:21.607Z,99587.56
2023-04-14T06:02:25.348Z,99592.72
2023-04-14T06:07:30.400Z,99591.34
2023-04-14T06:12:34.183Z,99597.28
2023-04-14T06:17:37.791Z,99584.84
2023-04-14T06:22:43.536Z,99573.44
2023-04-14T06:27:47.493Z,99580.28
2023-04-14T06:32:54.437Z,99577.19
2023-04-14T06:37:59.906Z,99585.06
2023-04-14T06:43:03.452Z,99601.09
2023-04-14T06:48:08.160Z,99599.34
2023-04-14T06:53:13.718Z,99598.69
2023-04-14T06:58:17.400Z,99594.19
2023-04-14T07:03:22.904Z,99599.91
2023-04-14T07:08:32.273Z,99601.41
2023-04-14T07:13:36.592Z,99598.88
2023-04-14T07:18:40.278Z,99608.13
2023-04-14T07:23:46.691Z,99611.06
2023-04-14T07:28:51.041Z,99622.63
2023-04-14T07:33:55.657Z,99615.59
2023-04-14T07:39:01.060Z,99620.13
2023-04-14T07:44:04.673Z,99616.53
2023-04-14T07:49:08.500Z,99615.44
2023-04-14T07:54:13.968Z,99615.06
2023-04-14T07:59:17.714Z,99627.69
2023-04-14T08:04:21.376Z,99627.88
2023-04-14T08:09:26.578Z,99618.41
2023-04-14T08:14:30.177Z,99595.75
2023-04-14T08:19:34.078Z,99614.06
2023-04-14T08:24:38.931Z,99621.16
2023-04-14T08:29:42.680Z,99625.16
2023-04-14T08:35:35.344Z,99609.94
2023-04-14T08:40:14.051Z,99614.84
2023-04-14T08:45:21.467Z,99604.59
2023-04-14T08:50:28.600Z,99612.53
2023-04-14T08:55:34.158Z,99613.91
2023-04-14T09:00:39.101Z,99599.47
2023-04-14T09:05:44.093Z,99598.09
2023-04-14T09:10:49.848Z,99604.56
2023-04-14T09:15:54.825Z,99604.66
2023-04-14T09:21:49.722Z,99601.19
2023-04-14T09:26:27.773Z,99606.34
2023-04-14T09:31:31.738Z,99602.06
2023-04-14T09:36:35.282Z,99589.94
2023-04-14T09:41:49.297Z,99605.53
2023-04-14T09:47:05.333Z,99614.19
2023-04-14T09:52:10.610Z,99612.47
2023-04-14T09:57:26.482Z,99595.16
2023-04-14T10:02:30.941Z,99616.81
2023-04-14T10:07:34.842Z,99614.22
2023-04-14T10:12:42.394Z,99645.31
2023-04-14T10:17:45.950Z,99651.47
2023-04-14T10:22:49.909Z,99660.03
2023-04-14T10:27:55.342Z,99655.72
2023-04-14T10:32:59.570Z,99647.88
2023-04-14T10:38:04.808Z,99664.31
2023-04-14T10:43:14.504Z,99663.50
2023-04-14T10:48:18.661Z,99651.47
2023-04-14T10:53:25.588Z,99638.41
2023-04-14T10:58:30.889Z,99669.66
2023-04-14T11:03:46.138Z,99669.66
2023-04-14T11:08:52.517Z,99677.44
2023-04-14T11:14:17.575Z,99638.41
2023-04-14T11:19:21.819Z,99683.53
2023-04-14T11:24:26.714Z,99685.25
2023-04-14T11:29:31.762Z,99683.41
2023-04-14T11:34:35.642Z,99695.53
2023-04-14T11:39:39.534Z,99675.66
2023-04-14T11:44:44.854Z,99678.34
2023-04-14T11:49:48.831Z,99672.28
2023-04-14T11:54:52.983Z,99676.59
2023-04-14T11:59:58.567Z,99666.19
2023-04-14T12:05:02.345Z,99674.00
2023-04-14T12:10:08.794Z,99682.66
2023-04-14T12:15:14.961Z,99667.00
2023-04-14T12:20:18.912Z,99680.88
2023-04-14T12:25:22.645Z,99686.00
2023-04-14T12:30:27.683Z,99662.66
2023-04-14T12:35:35.981Z,99662.72
2023-04-14T12:40:40.786Z,99662.66
2023-04-14T12:45:47.583Z,99678.22
2023-04-14T12:50:52.371Z,99666.19
2023-04-14T12:56:09.096Z,99659.16
2023-04-14T13:01:15.616Z,99660.06
2023-04-14T13:06:20.318Z,99670.47
2023-04-14T13:11:25.892Z,99669.56
2023-04-14T13:16:30.982Z,99668.69
2023-04-14T13:21:35.162Z,99675.56
2023-04-14T13:26:38.970Z,99678.16
2023-04-14T13:31:43.897Z,99680.75
2023-04-14T13:36:47.114Z,99679.06
2023-04-14T13:41:51.979Z,99663.38
2023-04-14T13:46:56.927Z,99684.19
2023-04-14T13:52:00.709Z,99685.06
2023-04-14T13:57:05.566Z,99683.34
2023-04-14T14:02:10.637Z,99691.97
2023-04-14T14:07:14.336Z,99688.50
2023-04-14T14:12:18.581Z,99692.75
2023-04-14T14:17:23.928Z,99702.16
2023-04-14T14:22:27.733Z,99698.59
2023-04-14T14:27:31.163Z,99700.34
2023-04-14T14:32:36.200Z,99698.56
2023-04-14T14:37:41.013Z,99696.78
2023-04-14T14:42:44.976Z,99717.47
2023-04-14T14:47:49.973Z,99712.09
2023-04-14T14:52:56.328Z,99721.59
2023-04-14T14:58:01.274Z,99724.91
2023-04-14T15:03:06.875Z,99672.00
2023-04-14T15:08:11.051Z,99737.81
2023-04-14T15:13:15.002Z,99735.97
2023-04-14T15:18:21.272Z,99734.97
2023-04-14T15:23:24.929Z,99747.06
2023-04-14T15:28:28.527Z,99753.03
2023-04-14T15:33:33.524Z,99731.81
2023-04-14T15:38:36.703Z,99766.34
2023-04-14T15:43:40.507Z,99773.91
2023-04-14T15:48:45.713Z,99771.16
2023-04-14T15:53:49.239Z,99786.56
2023-04-14T15:58:52.762Z,99787.31
2023-04-14T16:03:57.757Z,99782.72
2023-04-14T16:09:01.439Z,99803.13
2023-04-14T16:14:05.625Z,99796.00
2023-04-14T16:19:10.552Z,99808.97
2023-04-14T16:24:13.750Z,99813.03
2023-04-14T16:29:17.214Z,99811.94
2023-04-14T16:34:22.423Z,99823.81
2023-04-14T16:39:26.112Z,99815.63
2023-04-14T16:44:29.957Z,99836.28
2023-04-14T16:49:34.858Z,99841.22
2023-04-14T16:54:38.590Z,99848.69
2023-04-14T16:59:42.175Z,99865.19
2023-04-14T17:04:47.245Z,99863.09
2023-04-14T17:09:51.018Z,99869.88
2023-04-14T17:14:54.440Z,99874.66
2023-04-14T17:19:59.753Z,99879.47
2023-04-14T17:25:06.581Z,99887.91
2023-04-14T17:30:12.038Z,99902.22
2023-04-14T17:35:17.251Z,99907.22
2023-04-14T17:40:20.478Z,99914.56
2023-04-14T17:45:24.164Z,99920.66
2023-04-14T17:50:30.431Z,99920.44
2023-04-14T17:55:34.185Z,99921.81
2023-04-14T18:00:37.674Z,99937.38
2023-04-14T18:05:42.757Z,99938.72
2023-04-14T18:10:46.054Z,99936.81
2023-04-14T18:15:51.124Z,99936.50
2023-04-14T18:20:56.085Z,99937.13
2023-04-14T18:31:10.027Z,99958.63
2023-04-14T18:36:16.128Z,99956.53
2023-04-14T18:41:20.263Z,99958.72
2023-04-14T18:46:23.867Z,99959.13
2023-04-14T18:51:28.941Z,99958.41
2023-04-14T18:56:32.689Z,99955.91
2023-04-14T19:01:36.259Z,99950.41
2023-04-14T19:06:41.423Z,99970.19
2023-04-14T19:11:46.164Z,99962.63
2023-04-14T19:16:49.847Z,99962.38
2023-04-14T19:21:55.086Z,99974.19
2023-04-14T19:26:58.447Z,99974.19
2023-04-14T19:32:02.548Z,99983.31
2023-04-14T19:37:07.571Z,99982.56
2023-04-14T19:42:11.011Z,99990.59
2023-04-14T19:47:14.655Z,99980.84
2023-04-14T19:52:20.251Z,100000.31
2023-04-14T19:57:24.142Z,99987.38
2023-04-14T20:02:30.138Z,100008.59
2023-04-14T20:07:35.561Z,100005.22
2023-04-14T20:12:39.021Z,100012.28
2023-04-14T20:17:43.087Z,100011.16
2023-04-14T20:22:49.506Z,100024.13
2023-04-14T20:27:53.057Z,100026.44
2023-04-14T20:32:56.730Z,100035.66
2023-04-14T20:38:01.772Z,100028.22
2023-04-14T20:43:06.347Z,100039.13
2023-04-14T20:48:09.809Z,100052.41
2023-04-14T20:53:15.248Z,100053.75
2023-04-14T20:58:18.707Z,100057.06
2023-04-14T21:03:24.007Z,100072.16
2023-04-14T21:08:29.950Z,100064.34
2023-04-14T21:15:25.508Z,100086.50
2023-04-14T21:18:56.862Z,100094.44
2023-04-14T21:24:02.150Z,100098.47
2023-04-14T21:29:05.679Z,100098.66
2023-04-14T21:34:09.108Z,100114.97
2023-04-14T21:39:13.997Z,100114.63
2023-04-14T21:44:17.270Z,100123.09
2023-04-14T21:49:20.827Z,100131.75
2023-04-14T21:54:26.656Z,100136.09
2023-04-14T21:59:30.109Z,100141.63
2023-04-14T22:04:36.958Z,100145.03
2023-04-14T22:09:44.195Z,100141.56
2023-04-14T22:14:47.973Z,100154.44
2023-04-14T22:19:51.563Z,100149.56
2023-04-14T22:24:57.304Z,100144.50
2023-04-14T22:30:01.573Z,100153.78
2023-04-14T22:35:07.429Z,100149.19
2023-04-14T22:40:13.298Z,100157.44
2023-04-14T22:45:16.571Z,100172.84
2023-04-14T22:50:19.982Z,100170.03
2023-04-14T22:55:24.890Z,100179.69
2023-04-14T23:00:28.733Z,100171.66
2023-04-14T23:05:32.137Z,100184.94
2023-04-14T23:10:36.995Z,100195.13
2023-04-14T23:15:40.458Z,100205.91
2023-04-14T23:20:44.704Z,100196.56
2023-04-14T23:25:49.810Z,100210.00
2023-04-14T23:30:53.231Z,100216.34
2023-04-14T23:35:56.794Z,100214.88
2023-04-14T23:41:01.808Z,100225.59
2023-04-14T23:46:05.024Z,100226.16
2023-04-14T23:51:16.110Z,100225.91
2023-04-14T23:56:24.908Z,100233.44
